createdAt,value
2023-01-21T00:02:56.519Z,72.84
2023-01-21T00:05:59.776Z,72.92
2023-01-21T00:09:04.114Z,72.78
2023-01-21T00:12:07.606Z,72.70
2023-01-21T00:15:11.048Z,72.67
2023-01-21T00:18:15.324Z,72.62
2023-01-21T00:21:18.677Z,72.67
2023-01-21T00:24:24.456Z,72.81
2023-01-21T00:27:27.737Z,72.97
2023-01-21T00:30:31.052Z,72.79
2023-01-21T00:33:45.238Z,72.98
2023-01-21T00:36:48.455Z,72.88
2023-01-21T00:39:51.955Z,72.97
2023-01-21T00:42:55.284Z,72.99
2023-01-21T00:45:59.091Z,72.85
2023-01-21T00:49:02.501Z,72.86
2023-01-21T00:52:05.857Z,72.83
2023-01-21T00:55:09.332Z,73.03
2023-01-21T00:58:12.768Z,73.09
2023-01-21T01:01:19.340Z,73.03
2023-01-21T01:04:23.087Z,72.99
2023-01-21T01:07:26.247Z,73.06
2023-01-21T01:10:29.504Z,72.86
2023-01-21T01:13:34.975Z,73.09
2023-01-21T01:16:38.294Z,73.31
2023-01-21T01:19:41.507Z,73.08
2023-01-21T01:22:44.743Z,73.29
2023-01-21T01:26:02.792Z,73.20
2023-01-21T01:29:06.740Z,73.16
2023-01-21T01:32:10.843Z,73.48
2023-01-21T01:35:14.086Z,73.37
2023-01-21T01:38:22.466Z,73.31
2023-01-21T01:41:29.536Z,73.17
2023-01-21T01:44:57.558Z,73.19
2023-01-21T01:48:06.230Z,73.61
2023-01-21T01:51:10.086Z,73.43
2023-01-21T01:54:18.180Z,73.46
2023-01-21T01:57:24.005Z,73.27
2023-01-21T02:00:27.632Z,73.26
2023-01-21T02:03:44.929Z,73.30
2023-01-21T02:06:49.052Z,73.19
2023-01-21T02:09:53.801Z,73.10
2023-01-21T02:12:57.045Z,73.29
2023-01-21T02:16:15.126Z,73.21
2023-01-21T02:19:42.288Z,73.60
2023-01-21T02:23:12.344Z,73.46
2023-01-21T02:26:21.032Z,73.59
2023-01-21T02:29:52.941Z,73.59
2023-01-21T02:33:14.400Z,73.48
2023-01-21T02:36:35.971Z,73.57
2023-01-21T02:39:54.468Z,73.60
2023-01-21T02:43:08.396Z,73.55
2023-01-21T02:46:34.115Z,73.64
2023-01-21T02:49:45.407Z,73.62
2023-01-21T02:52:59.072Z,73.69
2023-01-21T02:56:12.201Z,73.69
2023-01-21T02:59:15.424Z,73.55
2023-01-21T03:02:46.474Z,73.45
2023-01-21T03:05:57.104Z,73.42
2023-01-21T03:09:10.232Z,73.44
2023-01-21T03:12:45.277Z,73.56
2023-01-21T03:16:14.409Z,73.40
2023-01-21T03:19:19.660Z,73.53
2023-01-21T03:22:27.983Z,73.42
2023-01-21T03:25:34.004Z,73.54
2023-01-21T03:28:44.759Z,73.53
2023-01-21T03:31:52.207Z,73.50
2023-01-21T03:34:56.706Z,73.51
2023-01-21T03:38:21.784Z,73.43
2023-01-21T03:41:33.580Z,73.51
2023-01-21T03:44:38.000Z,73.30
2023-01-21T03:47:50.473Z,73.54
2023-01-21T03:50:59.781Z,73.52
2023-01-21T03:54:03.051Z,73.69
2023-01-21T03:57:06.537Z,73.32
2023-01-21T04:00:10.798Z,73.47
2023-01-21T04:03:13.985Z,73.25
2023-01-21T04:06:20.233Z,73.42
2023-01-21T04:09:23.711Z,73.34
2023-01-21T04:12:26.896Z,73.46
2023-01-21T04:15:30.055Z,73.13
2023-01-21T04:18:33.411Z,73.34
2023-01-21T04:21:36.598Z,73.11
2023-01-21T04:24:40.473Z,73.19
2023-01-21T04:27:43.656Z,73.26
2023-01-21T04:30:47.541Z,73.21
2023-01-21T04:33:50.752Z,73.17
2023-01-21T04:36:53.927Z,73.15
2023-01-21T04:39:57.110Z,73.30
2023-01-21T04:43:00.318Z,73.13
2023-01-21T04:46:03.746Z,73.05
2023-01-21T04:49:06.916Z,73.10
2023-01-21T04:52:10.313Z,73.02
2023-01-21T04:55:13.520Z,73.23
2023-01-21T04:58:16.701Z,72.96
2023-01-21T05:01:19.839Z,72.99
2023-01-21T05:04:23.052Z,73.12
2023-01-21T05:07:26.342Z,73.07
2023-01-21T05:10:29.909Z,72.83
2023-01-21T05:13:33.418Z,73.14
2023-01-21T05:16:36.891Z,73.04
2023-01-21T05:19:40.085Z,72.96
2023-01-21T05:22:47.843Z,73.02
2023-01-21T05:25:51.129Z,73.00
2023-01-21T05:28:54.281Z,73.03
2023-01-21T05:31:57.478Z,72.99
2023-01-21T05:35:00.618Z,73.14
2023-01-21T05:38:03.875Z,73.15
2023-01-21T05:41:07.156Z,73.19
2023-01-21T05:44:10.619Z,72.85
2023-01-21T05:47:13.838Z,72.97
2023-01-21T05:50:18.299Z,72.98
2023-01-21T05:53:21.702Z,72.79
2023-01-21T05:56:24.905Z,72.98
2023-01-21T05:59:28.588Z,72.98
2023-01-21T06:02:31.851Z,73.01
2023-01-21T06:05:35.190Z,73.16
2023-01-21T06:08:38.621Z,72.91
2023-01-21T06:11:42.162Z,73.14
2023-01-21T06:14:45.299Z,73.19
2023-01-21T06:17:48.415Z,72.83
2023-01-21T06:20:51.677Z,72.87
2023-01-21T06:23:54.866Z,72.97
2023-01-21T06:26:58.043Z,72.88
2023-01-21T06:30:01.201Z,72.93
2023-01-21T06:33:04.632Z,72.87
2023-01-21T06:36:08.511Z,72.79
2023-01-21T06:39:11.841Z,73.04
2023-01-21T06:42:17.868Z,73.09
2023-01-21T06:45:21.133Z,72.87
2023-01-21T06:48:24.385Z,72.90
2023-01-21T06:51:27.635Z,72.85
2023-01-21T06:54:30.963Z,72.76
2023-01-21T06:57:34.154Z,72.97
2023-01-21T07:00:37.414Z,72.95
2023-01-21T07:03:40.595Z,72.60
2023-01-21T07:06:43.893Z,72.77
2023-01-21T07:09:47.193Z,72.83
2023-01-21T07:12:50.820Z,72.81
2023-01-21T07:15:59.851Z,72.93
2023-01-21T07:19:03.309Z,72.84
2023-01-21T07:22:06.607Z,72.71
2023-01-21T07:25:10.108Z,72.81
2023-01-21T07:28:13.303Z,72.80
2023-01-21T07:31:16.580Z,72.81
2023-01-21T07:34:19.916Z,72.96
2023-01-21T07:37:23.127Z,72.91
2023-01-21T07:40:26.416Z,72.93
2023-01-21T07:43:29.608Z,73.02
2023-01-21T07:46:33.329Z,72.94
2023-01-21T07:49:37.796Z,72.96
2023-01-21T07:52:41.106Z,73.03
2023-01-21T07:55:44.317Z,73.16
2023-01-21T07:58:47.747Z,73.30
2023-01-21T08:01:50.999Z,73.04
2023-01-21T08:04:54.370Z,73.03
2023-01-21T08:07:58.798Z,72.87
2023-01-21T08:11:02.042Z,73.00
2023-01-21T08:14:05.762Z,72.92
2023-01-21T08:17:09.870Z,73.19
2023-01-21T08:20:13.689Z,72.98
2023-01-21T08:23:16.914Z,73.10
2023-01-21T08:26:20.131Z,73.04
2023-01-21T08:29:23.360Z,73.05
2023-01-21T08:32:29.881Z,73.00
2023-01-21T08:35:33.065Z,73.03
2023-01-21T08:38:36.963Z,73.09
2023-01-21T08:41:42.879Z,72.96
2023-01-21T08:44:46.511Z,73.14
2023-01-21T08:47:49.675Z,73.11
2023-01-21T08:50:52.896Z,73.08
2023-01-21T08:53:56.117Z,73.00
2023-01-21T08:56:59.269Z,73.13
2023-01-21T09:00:02.491Z,72.97
2023-01-21T09:03:05.761Z,72.72
2023-01-21T09:06:12.617Z,72.80
2023-01-21T09:09:16.211Z,72.81
2023-01-21T09:12:19.531Z,72.79
2023-01-21T09:15:22.741Z,72.89
2023-01-21T09:18:26.053Z,72.94
2023-01-21T09:21:34.552Z,72.69
2023-01-21T09:24:37.850Z,72.61
2023-01-21T09:27:41.292Z,72.70
2023-01-21T09:30:44.730Z,72.61
2023-01-21T09:33:50.232Z,72.59
2023-01-21T09:36:53.555Z,72.70
2023-01-21T09:39:56.714Z,72.62
2023-01-21T09:43:11.020Z,74.40
2023-01-21T09:46:55.496Z,74.85
2023-01-21T09:50:14.169Z,73.74
2023-01-21T09:53:32.574Z,73.35
2023-01-21T09:56:45.566Z,72.91
2023-01-21T10:00:10.013Z,72.74
2023-01-21T10:03:37.297Z,72.72
2023-01-21T10:06:59.781Z,72.63
2023-01-21T10:10:27.890Z,72.63
2023-01-21T10:13:46.332Z,72.50
2023-01-21T10:17:13.601Z,72.68
2023-01-21T10:20:27.197Z,72.75
2023-01-21T10:23:43.718Z,72.55
2023-01-21T10:26:49.677Z,72.56
2023-01-21T10:30:22.396Z,72.69
2023-01-21T10:33:26.927Z,72.49
2023-01-21T10:36:49.392Z,72.51
2023-01-21T10:40:38.861Z,72.36
2023-01-21T10:43:54.959Z,72.46
2023-01-21T10:47:34.473Z,72.39
2023-01-21T10:51:28.794Z,72.50
2023-01-21T10:54:47.127Z,72.34
2023-01-21T10:58:04.068Z,72.36
2023-01-21T11:01:18.752Z,72.48
2023-01-21T11:04:24.482Z,72.52
2023-01-21T11:07:34.891Z,72.36
2023-01-21T11:10:40.359Z,72.31
2023-01-21T11:13:43.623Z,72.35
2023-01-21T11:16:50.059Z,72.43
2023-01-21T11:20:00.768Z,72.22
2023-01-21T11:23:24.339Z,72.27
2023-01-21T11:26:28.246Z,72.26
2023-01-21T11:29:41.553Z,72.06
2023-01-21T11:32:44.894Z,72.17
2023-01-21T11:35:48.422Z,72.28
2023-01-21T11:39:06.620Z,72.05
2023-01-21T11:42:17.120Z,72.00
2023-01-21T11:45:31.170Z,72.00
2023-01-21T11:48:35.430Z,72.06
2023-01-21T11:51:41.233Z,72.03
2023-01-21T11:54:45.326Z,72.24
2023-01-21T11:57:53.268Z,71.93
2023-01-21T12:00:59.945Z,71.97
2023-01-21T12:04:03.346Z,71.83
2023-01-21T12:07:06.655Z,71.84
2023-01-21T12:10:12.890Z,71.87
2023-01-21T12:13:24.092Z,72.02
2023-01-21T12:16:37.398Z,71.98
2023-01-21T12:19:57.463Z,71.78
2023-01-21T12:23:23.959Z,72.11
2023-01-21T12:26:33.014Z,71.91
2023-01-21T12:29:52.596Z,72.06
2023-01-21T12:33:03.718Z,71.98
2023-01-21T12:36:17.661Z,71.95
2023-01-21T12:39:29.094Z,71.90
2023-01-21T12:42:41.200Z,72.76
2023-01-21T12:45:53.640Z,73.71
2023-01-21T12:48:56.714Z,72.72
2023-01-21T12:52:07.551Z,72.37
2023-01-21T12:55:25.561Z,72.30
2023-01-21T12:58:42.852Z,72.19
2023-01-21T13:02:05.794Z,72.16
2023-01-21T13:05:19.389Z,72.03
2023-01-21T13:08:43.658Z,72.04
2023-01-21T13:11:54.830Z,72.13
2023-01-21T13:15:14.761Z,71.84
2023-01-21T13:18:35.489Z,72.01
2023-01-21T13:22:01.390Z,72.01
2023-01-21T13:25:25.679Z,72.04
2023-01-21T13:29:06.135Z,72.11
2023-01-21T13:32:18.963Z,71.97
2023-01-21T13:35:40.752Z,72.08
2023-01-21T13:38:55.275Z,72.19
2023-01-21T13:42:07.456Z,72.08
2023-01-21T13:45:34.743Z,72.24
2023-01-21T13:49:14.878Z,72.02
2023-01-21T13:52:39.408Z,72.26
2023-01-21T13:56:15.610Z,72.17
2023-01-21T13:59:25.179Z,72.07
2023-01-21T14:02:56.658Z,72.07
2023-01-21T14:06:17.638Z,72.28
2023-01-21T14:09:29.588Z,72.26
2023-01-21T14:12:54.946Z,71.98
2023-01-21T14:16:32.351Z,72.05
2023-01-21T14:19:54.715Z,71.93
2023-01-21T14:23:05.736Z,72.06
2023-01-21T14:26:35.996Z,72.05
2023-01-21T14:29:46.687Z,72.15
2023-01-21T14:32:57.159Z,72.33
2023-01-21T14:36:39.530Z,72.04
2023-01-21T14:40:09.612Z,72.05
2023-01-21T14:43:30.921Z,72.20
2023-01-21T14:46:34.405Z,72.04
2023-01-21T14:49:43.526Z,72.37
2023-01-21T14:52:47.242Z,72.18
2023-01-21T14:56:09.055Z,72.20
2023-01-21T14:59:43.654Z,72.37
2023-01-21T15:02:52.234Z,72.12
2023-01-21T15:06:00.507Z,72.26
2023-01-21T15:09:05.545Z,72.18
2023-01-21T15:12:22.144Z,72.45
2023-01-21T15:15:39.887Z,72.38
2023-01-21T15:19:05.179Z,72.43
2023-01-21T15:22:35.465Z,72.56
2023-01-21T15:26:07.456Z,72.58
2023-01-21T15:29:34.358Z,72.53
2023-01-21T15:32:44.769Z,72.50
2023-01-21T15:35:48.280Z,72.66
2023-01-21T15:38:54.591Z,72.71
2023-01-21T15:42:30.318Z,72.80
2023-01-21T15:45:45.109Z,72.75
2023-01-21T15:49:19.208Z,72.70
2023-01-21T15:52:44.151Z,72.67
2023-01-21T15:56:13.149Z,72.71
2023-01-21T15:59:36.050Z,72.78
2023-01-21T16:02:57.921Z,72.82
2023-01-21T16:06:14.909Z,72.89
2023-01-21T16:09:34.111Z,72.84
2023-01-21T16:12:43.526Z,72.90
2023-01-21T16:16:02.465Z,72.86
2023-01-21T16:19:13.519Z,72.88
2023-01-21T16:22:25.717Z,72.87
2023-01-21T16:25:29.061Z,72.77
2023-01-21T16:28:51.416Z,73.01
2023-01-21T16:32:01.532Z,73.03
2023-01-21T16:35:05.904Z,72.63
2023-01-21T16:38:15.303Z,72.81
2023-01-21T16:41:24.069Z,72.83
2023-01-21T16:44:27.492Z,72.78
2023-01-21T16:47:36.214Z,73.05
2023-01-21T16:50:46.710Z,72.89
2023-01-21T16:53:53.745Z,72.97
2023-01-21T16:57:02.488Z,72.90
2023-01-21T17:00:22.458Z,72.93
2023-01-21T17:03:25.813Z,72.89
2023-01-21T17:06:31.991Z,72.73
2023-01-21T17:09:37.121Z,72.91
2023-01-21T17:12:40.661Z,72.77
2023-01-21T17:15:57.396Z,72.69
2023-01-21T17:19:08.557Z,72.81
2023-01-21T17:22:19.017Z,72.78
2023-01-21T17:25:25.858Z,72.81
2023-01-21T17:28:44.376Z,72.83
2023-01-21T17:32:04.862Z,72.64
2023-01-21T17:35:17.884Z,72.83
2023-01-21T17:38:30.210Z,72.75
2023-01-21T17:41:38.245Z,72.56
2023-01-21T17:44:46.257Z,72.47
2023-01-21T17:48:08.596Z,72.49
2023-01-21T17:51:22.254Z,72.57
2023-01-21T17:54:29.680Z,72.66
2023-01-21T17:57:35.625Z,72.67
2023-01-21T18:00:43.251Z,72.66
2023-01-21T18:03:46.794Z,72.49
2023-01-21T18:06:52.219Z,72.65
2023-01-21T18:10:02.317Z,72.55
2023-01-21T18:13:05.949Z,72.79
2023-01-21T18:16:09.726Z,72.65
2023-01-21T18:19:32.202Z,72.88
2023-01-21T18:22:36.163Z,72.74
2023-01-21T18:25:43.609Z,73.11
2023-01-21T18:28:46.856Z,72.85
2023-01-21T18:31:52.174Z,72.69
2023-01-21T18:34:55.475Z,72.78
2023-01-21T18:37:58.681Z,72.85
2023-01-21T18:41:02.140Z,72.84
2023-01-21T18:44:05.455Z,72.85
2023-01-21T18:47:15.938Z,72.89
2023-01-21T18:50:22.401Z,72.79
2023-01-21T18:53:25.964Z,72.85
2023-01-21T18:56:29.230Z,72.93
2023-01-21T18:59:34.667Z,73.04
2023-01-21T19:02:38.915Z,72.95
2023-01-21T19:05:45.601Z,73.01
2023-01-21T19:08:51.233Z,73.00
2023-01-21T19:12:01.591Z,73.03
2023-01-21T19:15:08.193Z,73.13
2023-01-21T19:18:13.191Z,73.04
2023-01-21T19:21:16.988Z,73.03
2023-01-21T19:24:21.049Z,73.02
2023-01-21T19:27:29.340Z,73.05
2023-01-21T19:30:32.856Z,73.30
2023-01-21T19:33:36.253Z,72.98
2023-01-21T19:36:40.192Z,73.05
2023-01-21T19:39:43.412Z,73.03
2023-01-21T19:42:47.340Z,73.19
2023-01-21T19:45:52.845Z,73.17
2023-01-21T19:48:57.835Z,73.25
2023-01-21T19:52:01.180Z,73.11
2023-01-21T19:55:06.376Z,73.44
2023-01-21T19:58:19.760Z,73.17
2023-01-21T20:01:23.407Z,73.36
2023-01-21T20:04:26.598Z,73.14
2023-01-21T20:07:30.995Z,73.21
2023-01-21T20:10:34.229Z,73.03
2023-01-21T20:13:39.339Z,73.21
2023-01-21T20:16:50.043Z,73.23
2023-01-21T20:19:53.287Z,73.40
2023-01-21T20:22:56.769Z,73.39
2023-01-21T20:26:00.957Z,73.26
2023-01-21T20:29:06.752Z,73.27
2023-01-21T20:32:10.703Z,73.33
2023-01-21T20:35:15.919Z,73.23
2023-01-21T20:38:30.252Z,73.19
2023-01-21T20:41:34.442Z,73.23
2023-01-21T20:44:37.684Z,73.38
2023-01-21T20:47:50.128Z,73.32
2023-01-21T20:50:54.182Z,73.43
2023-01-21T20:53:57.447Z,73.50
2023-01-21T20:57:00.707Z,73.34
2023-01-21T21:00:05.440Z,73.36
2023-01-21T21:03:08.727Z,73.45
2023-01-21T21:06:22.079Z,73.35
2023-01-21T21:09:25.240Z,73.40
2023-01-21T21:12:28.448Z,73.36
2023-01-21T21:15:34.330Z,73.41
2023-01-21T21:18:37.473Z,73.35
2023-01-21T21:21:40.666Z,73.50
2023-01-21T21:24:43.945Z,73.44
2023-01-21T21:27:47.341Z,73.38
2023-01-21T21:30:50.553Z,73.49
2023-01-21T21:33:53.837Z,73.34
2023-01-21T21:36:57.252Z,73.43
2023-01-21T21:40:00.752Z,73.73
2023-01-21T21:43:23.559Z,73.63
2023-01-21T21:46:45.502Z,73.53
2023-01-21T21:49:48.693Z,73.61
2023-01-21T21:52:51.901Z,73.38
2023-01-21T21:55:55.089Z,73.39
2023-01-21T21:58:58.259Z,73.58
2023-01-21T22:02:01.443Z,73.60
2023-01-21T22:05:05.072Z,73.37
2023-01-21T22:08:09.249Z,73.32
2023-01-21T22:11:20.551Z,73.18
2023-01-21T22:14:23.708Z,73.02
2023-01-21T22:17:26.939Z,73.12
2023-01-21T22:20:30.134Z,73.07
2023-01-21T22:23:35.671Z,72.75
2023-01-21T22:26:38.863Z,72.91
2023-01-21T22:29:42.066Z,73.04
2023-01-21T22:32:45.369Z,73.06
2023-01-21T22:35:48.547Z,72.95
2023-01-21T22:38:52.557Z,72.89
2023-01-21T22:41:55.844Z,72.88
2023-01-21T22:44:59.073Z,72.99
2023-01-21T22:48:02.472Z,72.84
2023-01-21T22:51:05.916Z,72.84
2023-01-21T22:54:10.128Z,72.80
2023-01-21T22:57:13.542Z,72.72
2023-01-21T23:00:34.624Z,72.69
2023-01-21T23:03:37.858Z,72.64
2023-01-21T23:06:41.095Z,72.47
2023-01-21T23:09:44.330Z,72.49
2023-01-21T23:12:48.182Z,72.38
2023-01-21T23:15:51.427Z,72.41
2023-01-21T23:18:54.585Z,72.41
2023-01-21T23:21:57.741Z,72.34
2023-01-21T23:25:00.932Z,72.32
2023-01-21T23:28:04.335Z,72.23
2023-01-21T23:31:13.876Z,71.97
2023-01-21T23:34:17.716Z,71.85
2023-01-21T23:37:20.929Z,71.91
2023-01-21T23:40:24.064Z,71.82
2023-01-21T23:43:27.422Z,71.80
2023-01-21T23:46:30.785Z,71.67
2023-01-21T23:49:34.115Z,71.87
2023-01-21T23:52:40.818Z,71.74
2023-01-21T23:55:44.675Z,71.84
2023-01-21T23:58:48.159Z,71.87
